Concepcion, Texas
Current Conditions -  °F | °C
As of 2:35 PM on Friday 28 Nov 2014 (Local Time) from KBKS Reporting Station
Clear Clear  
Wind Chill: 77°   Ceiling: Unl
Heat Index: 78°   Visibility: 10mi
Dew Point: 51°   Wind: 14mph
Humidity: 40%   Direction: 180°S
Pressure: 30.16"   Gusts: 17mph
Location:  27.39°N, 98.36°W
Report Text: KBKS 282035Z AUTO 18012G15KT 10SM CLR 25/10 A3016 RMK AO1 T02490103
Loading
Personal Weather Stations






























Interactive Weather Map New forecast layout! Learn more

10-Day Weather Forecast

Advertisements
Track Severe Weather on mobile